Time;durP1;ratioP1;P1;durP2;ratioP2;P2;SDS_P1;SDS_P2;PMS_P1;PMS_P2;Temp;Humidity;BMP_temperature;BMP_pressure;BME280_temperature;BME280_humidity;BME280_pressure;Samples;Min_cycle;Max_cycle;Signal;HPM_P1;HPM_P2
2022/09/25 00:02:44;;;;;;;6.97;4.57;;;;;;;10.18;100.00;96207.03;10331609;28;20225;-73
2022/09/25 00:07:44;;;;;;;7.73;5.10;;;;;;;10.15;100.00;96198.69;10331046;28;20217;-73
2022/09/25 00:12:44;;;;;;;7.43;4.88;;;;;;;10.26;100.00;96200.97;10331388;28;20212;-73
2022/09/25 00:17:45;;;;;;;5.27;4.33;;;;;;;10.20;100.00;96193.78;10330858;28;20292;-74
2022/09/25 00:22:46;;;;;;;7.27;5.47;;;;;;;10.12;100.00;96191.16;10330808;28;20205;-73
2022/09/25 00:27:49;;;;;;;8.00;5.10;;;;;;;10.09;100.00;96186.25;10313319;28;20218;-73
2022/09/25 00:32:49;;;;;;;5.87;4.87;;;;;;;10.11;100.00;96184.31;10329890;28;20229;-73
2022/09/25 00:37:49;;;;;;;7.50;5.47;;;;;;;9.98;100.00;96195.28;10330316;28;20209;-73
2022/09/25 00:42:50;;;;;;;8.50;5.87;;;;;;;9.91;100.00;96187.28;10329642;28;20197;-73
2022/09/25 00:47:58;;;;;;;7.97;4.93;;;;;;;10.02;100.00;96190.56;10329970;28;20228;-73
2022/09/25 00:53:03;;;;;;;8.67;5.10;;;;;;;9.92;100.00;96183.69;10329891;28;20198;-73
2022/09/25 00:58:04;;;;;;;6.93;5.53;;;;;;;9.92;100.00;96181.06;10312186;28;20186;-73
2022/09/25 01:03:06;;;;;;;5.23;4.73;;;;;;;9.93;100.00;96180.06;10311218;28;20238;-73
2022/09/25 01:08:09;;;;;;;6.90;5.53;;;;;;;9.97;100.00;96172.72;10328691;28;20218;-73
2022/09/25 01:13:10;;;;;;;8.40;5.35;;;;;;;9.95;100.00;96172.91;10311634;28;20186;-73
2022/09/25 01:18:23;;;;;;;7.72;5.15;;;;;;;9.88;100.00;96168.50;10328948;28;20198;-73
2022/09/25 01:24:11;;;;;;;8.10;4.90;;;;;;;9.84;100.00;96162.75;10329123;28;20193;-73
2022/09/25 01:29:24;;;;;;;7.90;5.03;;;;;;;9.81;100.00;96169.13;10315003;28;20413;-72
2022/09/25 01:34:29;;;;;;;7.93;5.30;;;;;;;9.71;100.00;96175.50;10311416;28;20194;-73
2022/09/25 01:39:44;;;;;;;7.05;5.45;;;;;;;9.63;100.00;96174.56;10311147;28;20738;-73
2022/09/25 01:45:01;;;;;;;10.60;6.00;;;;;;;9.54;100.00;96178.16;10334653;28;20279;-73
2022/09/25 01:50:07;;;;;;;6.97;5.70;;;;;;;9.42;100.00;96164.56;10336624;28;20316;-73
2022/09/25 01:55:39;;;;;;;7.03;5.63;;;;;;;9.39;100.00;96180.59;10336556;28;20658;-73
2022/09/25 02:00:48;;;;;;;7.57;5.60;;;;;;;9.43;100.00;96181.91;10307113;28;20312;-72
2022/09/25 02:05:52;;;;;;;7.20;6.17;;;;;;;9.43;100.00;96181.06;10335918;28;20271;-73
2022/09/25 02:10:55;;;;;;;9.30;6.10;;;;;;;9.43;100.00;96186.28;10318577;28;20226;-73
2022/09/25 02:15:59;;;;;;;8.40;5.90;;;;;;;9.32;100.00;96184.81;10318253;28;20214;-73
2022/09/25 02:21:01;;;;;;;9.03;5.97;;;;;;;9.29;100.00;96185.13;10334480;28;20201;-72
2022/09/25 02:26:05;;;;;;;6.80;5.33;;;;;;;9.28;100.00;96188.75;10323964;28;20201;-73
2022/09/25 02:31:11;;;;;;;6.53;5.93;;;;;;;9.15;100.00;96172.72;10317194;28;20635;-73
2022/09/25 02:36:17;;;;;;;8.20;5.40;;;;;;;9.15;100.00;96183.97;10317680;28;20210;-72
2022/09/25 02:41:37;;;;;;;9.93;5.43;;;;;;;9.18;100.00;96181.03;10334834;28;20197;-73
2022/09/25 02:47:11;;;;;;;6.87;5.10;;;;;;;9.19;100.00;96181.84;10334341;28;20186;-73
2022/09/25 02:52:22;;;;;;;10.33;6.10;;;;;;;9.07;100.00;96179.56;10334256;28;20202;-73
2022/09/25 02:57:24;;;;;;;6.87;5.53;;;;;;;9.06;100.00;96182.31;10316807;28;20228;-72
2022/09/25 03:02:26;;;;;;;8.10;5.80;;;;;;;9.12;100.00;96176.47;10336011;28;20237;-72
2022/09/25 03:07:27;;;;;;;8.37;5.80;;;;;;;9.16;100.00;96174.31;10337968;28;20229;-73
2022/09/25 03:12:27;;;;;;;8.93;5.73;;;;;;;9.08;100.00;96172.53;10369626;28;20281;-72
2022/09/25 03:17:28;;;;;;;10.07;5.93;;;;;;;9.14;100.00;96177.09;10351806;28;20200;-73
2022/09/25 03:22:28;;;;;;;6.30;5.03;;;;;;;9.27;100.00;96172.22;10368936;28;20275;-72
2022/09/25 03:27:28;;;;;;;7.37;5.23;;;;;;;9.33;100.00;96164.75;10369685;28;20209;-72
2022/09/25 03:32:29;;;;;;;8.47;5.20;;;;;;;9.27;100.00;96161.78;10369196;28;20212;-73
2022/09/25 03:37:30;;;;;;;7.77;6.00;;;;;;;9.07;100.00;96171.72;10369141;28;20230;-73
2022/09/25 03:42:31;;;;;;;8.30;6.03;;;;;;;9.04;100.00;96182.47;10369516;28;20581;-73
2022/09/25 03:47:31;;;;;;;7.20;5.70;;;;;;;9.05;100.00;96172.84;10368668;28;20658;-73
2022/09/25 03:52:31;;;;;;;8.00;5.80;;;;;;;9.06;100.00;96180.50;10369240;28;20363;-73
2022/09/25 03:57:32;;;;;;;6.83;5.67;;;;;;;9.00;100.00;96172.50;10368286;28;20194;-72
2022/09/25 04:02:32;;;;;;;7.87;5.60;;;;;;;9.03;100.00;96173.00;10370169;28;20327;-73
2022/09/25 04:07:33;;;;;;;10.50;5.57;;;;;;;9.03;100.00;96175.63;10371078;28;20688;-74
2022/09/25 04:12:34;;;;;;;7.57;5.60;;;;;;;9.01;100.00;96180.19;10371767;28;20566;-73
2022/09/25 04:17:34;;;;;;;6.47;5.40;;;;;;;8.92;100.00;96181.97;10371458;28;20599;-73
2022/09/25 04:22:35;;;;;;;8.70;6.10;;;;;;;8.80;100.00;96185.84;10371192;28;20201;-74
2022/09/25 04:27:38;;;;;;;8.83;6.90;;;;;;;8.76;100.00;96189.75;10371468;28;20217;-74
2022/09/25 04:37:57;;;;;;;13.07;6.70;;;;;;;8.68;100.00;96202.78;10371022;28;20236;-74
2022/09/25 04:43:00;;;;;;;9.63;6.40;;;;;;;8.67;100.00;96203.75;10370719;28;20280;-74
2022/09/25 04:48:00;;;;;;;11.77;6.60;;;;;;;8.60;100.00;96202.75;10370522;28;20312;-74
2022/09/25 04:53:01;;;;;;;10.07;6.10;;;;;;;8.64;100.00;96207.50;10352654;28;20284;-75
2022/09/25 04:58:01;;;;;;;8.67;6.80;;;;;;;8.65;100.00;96209.16;10352664;28;20664;-74
2022/09/25 05:03:03;;;;;;;50.67;19.17;;;;;;;8.67;100.00;96207.19;10369914;28;20608;-74
2022/09/25 05:08:03;;;;;;;24.37;16.53;;;;;;;8.67;100.00;96214.22;10352393;28;20247;-74
2022/09/25 05:13:04;;;;;;;14.33;7.63;;;;;;;8.71;100.00;96215.50;10369929;28;20280;-74
2022/09/25 05:18:06;;;;;;;16.00;10.73;;;;;;;8.74;100.00;96215.19;10368558;28;20193;-73
2022/09/25 05:23:07;;;;;;;6.93;5.93;;;;;;;8.71;100.00;96211.13;10369643;28;20197;-74
2022/09/25 05:28:08;;;;;;;9.57;6.40;;;;;;;8.77;100.00;96206.25;10369024;28;20637;-73
2022/09/25 05:33:08;;;;;;;6.73;5.57;;;;;;;8.85;100.00;96209.72;10369574;28;20268;-73
2022/09/25 05:38:09;;;;;;;14.03;7.00;;;;;;;8.87;100.00;96205.13;10369172;28;20310;-74
2022/09/25 05:43:11;;;;;;;7.47;5.77;;;;;;;8.87;100.00;96207.75;10368789;28;20193;-73
2022/09/25 05:48:11;;;;;;;7.03;5.97;;;;;;;8.90;100.00;96204.81;10369011;28;20248;-73
2022/09/25 05:53:12;;;;;;;6.30;5.67;;;;;;;8.96;100.00;96211.22;10368845;28;20284;-73
2022/09/25 05:58:12;;;;;;;11.30;5.60;;;;;;;9.06;100.00;96217.09;10368953;28;20197;-73
2022/09/25 06:03:13;;;;;;;6.77;5.77;;;;;;;9.08;100.00;96212.56;10368603;28;20240;-74
2022/09/25 06:08:14;;;;;;;11.17;5.57;;;;;;;9.10;100.00;96201.94;10368554;28;20221;-74
2022/09/25 06:13:14;;;;;;;7.77;6.40;;;;;;;9.16;100.00;96200.47;10368698;28;20240;-73
2022/09/25 06:18:15;;;;;;;6.53;5.93;;;;;;;9.19;100.00;96206.19;10368333;28;20534;-73
2022/09/25 06:23:15;;;;;;;7.17;6.33;;;;;;;9.25;100.00;96195.09;10368672;28;20252;-74
2022/09/25 06:28:16;;;;;;;6.70;5.27;;;;;;;9.42;100.00;96193.31;10370517;28;20632;-73
2022/09/25 06:33:16;;;;;;;8.23;5.50;;;;;;;9.41;100.00;96191.69;10375646;28;20203;-74
2022/09/25 06:38:17;;;;;;;9.07;5.90;;;;;;;9.51;100.00;96185.47;10375458;28;20612;-73
2022/09/25 06:43:17;;;;;;;9.80;6.23;;;;;;;9.67;100.00;96190.72;10375279;28;20551;-73
2022/09/25 06:48:17;;;;;;;6.47;5.40;;;;;;;9.72;100.00;96195.47;10375257;28;20304;-74
2022/09/25 06:53:19;;;;;;;7.77;6.20;;;;;;;9.76;100.00;96194.97;10375611;28;20239;-74
2022/09/25 06:58:21;;;;;;;8.17;5.67;;;;;;;9.94;100.00;96204.47;10374973;28;20658;-73
2022/09/25 07:08:46;;;;;;;12.70;5.77;;;;;;;10.26;100.00;96198.34;10374317;28;20649;-73
2022/09/25 07:13:50;;;;;;;8.97;5.53;;;;;;;10.50;100.00;96202.72;10374209;28;20224;-74
2022/09/25 07:18:52;;;;;;;7.97;5.30;;;;;;;10.66;100.00;96196.63;10373991;28;20193;-73
2022/09/25 07:23:53;;;;;;;7.60;5.60;;;;;;;10.85;100.00;96200.63;10373668;28;20244;-74
2022/09/25 07:29:02;;;;;;;5.73;5.00;;;;;;;11.12;100.00;96193.28;10373841;28;20240;-74
2022/09/25 07:34:07;;;;;;;6.23;5.00;;;;;;;11.43;100.00;96185.38;10373214;28;20275;-74
2022/09/25 07:39:08;;;;;;;5.28;4.72;;;;;;;11.86;100.00;96184.09;10372131;28;20220;-73
2022/09/25 07:44:08;;;;;;;6.32;4.40;;;;;;;12.28;100.00;96172.22;10372495;28;20198;-73
2022/09/25 07:49:09;;;;;;;6.47;4.78;;;;;;;13.70;100.00;96153.41;10372396;28;20221;-73
2022/09/25 07:54:09;;;;;;;6.15;5.15;;;;;;;14.87;100.00;96114.19;10372623;28;20203;-73
2022/09/25 07:59:09;;;;;;;10.55;6.45;;;;;;;15.36;93.78;96085.88;10372143;28;20194;-73
2022/09/25 08:04:10;;;;;;;10.43;7.90;;;;;;;15.87;88.13;96068.59;10372118;28;20189;-73
2022/09/25 08:09:11;;;;;;;10.95;7.90;;;;;;;14.81;91.17;96109.69;10371866;28;20249;-74
2022/09/25 08:14:13;;;;;;;12.15;6.60;;;;;;;15.78;91.79;96107.63;10371778;28;20185;-74
2022/09/25 08:19:16;;;;;;;7.88;6.32;;;;;;;16.62;85.87;96075.31;10370336;28;20197;-74
2022/09/25 08:24:16;;;;;;;7.90;6.97;;;;;;;17.45;80.48;96047.94;10371125;28;20543;-73
2022/09/25 08:29:17;;;;;;;11.90;7.50;;;;;;;17.57;75.90;96001.19;10370970;28;20225;-73
2022/09/25 08:34:17;;;;;;;8.10;7.28;;;;;;;17.05;79.71;96046.38;10371075;28;20199;-73
2022/09/25 08:39:18;;;;;;;16.98;15.32;;;;;;;17.40;79.55;96043.28;10370704;28;20225;-73
2022/09/25 08:44:43;;;;;;;9.40;8.35;;;;;;;16.80;82.56;96071.94;10370317;28;20192;-73
2022/09/25 08:49:57;;;;;;;11.40;9.13;;;;;;;16.87;78.97;96041.81;10352611;28;20260;-73
2022/09/25 08:54:58;;;;;;;9.63;8.65;;;;;;;17.98;76.47;96034.22;10352558;28;20197;-73
2022/09/25 09:00:01;;;;;;;10.27;7.38;;;;;;;18.97;71.21;95992.63;10368805;28;20225;-73
2022/09/25 09:05:02;;;;;;;7.28;6.32;;;;;;;18.35;75.43;96041.38;10369397;28;20550;-73
2022/09/25 09:10:06;;;;;;;8.70;7.35;;;;;;;18.11;75.10;96038.56;10352392;28;20224;-73
2022/09/25 09:15:39;;;;;;;6.72;6.03;;;;;;;18.29;74.24;96027.16;10351833;28;20278;-72
2022/09/25 09:20:51;;;;;;;9.45;7.75;;;;;;;17.45;76.58;96032.03;10357170;28;20196;-72
2022/09/25 09:26:07;;;;;;;8.45;6.90;;;;;;;18.22;73.49;96012.34;10369458;28;20684;-73
2022/09/25 09:31:28;;;;;;;10.20;7.03;;;;;;;18.98;72.33;96007.50;10352529;28;20243;-73
2022/09/25 09:36:44;;;;;;;8.93;7.68;;;;;;;19.69;66.81;95941.16;10351532;28;20287;-73
2022/09/25 09:42:03;;;;;;;9.25;7.80;;;;;;;20.25;66.32;95958.28;10368909;28;20251;-73
2022/09/25 09:47:21;;;;;;;10.43;7.30;;;;;;;20.91;59.75;95862.03;10350892;28;20197;-74
2022/09/25 09:52:26;;;;;;;9.55;6.68;;;;;;;22.14;58.73;95888.69;10368658;28;20212;-74
2022/09/25 09:57:30;;;;;;;9.55;7.13;;;;;;;21.96;57.30;95858.66;10368465;28;20208;-74
2022/09/25 10:02:39;;;;;;;7.88;6.93;;;;;;;23.37;55.12;95856.91;10369164;28;20314;-73
2022/09/25 10:07:40;;;;;;;6.75;5.40;;;;;;;23.08;53.86;95831.34;10358607;28;20724;-73
2022/09/25 10:12:50;;;;;;;7.53;6.18;;;;;;;23.27;51.78;95810.34;10358486;28;20207;-73
2022/09/25 10:17:52;;;;;;;6.50;5.82;;;;;;;23.12;50.09;95762.19;10375917;28;20193;-73
2022/09/25 10:22:55;;;;;;;8.15;6.38;;;;;;;22.71;52.36;95813.47;10358512;28;20770;-73
2022/09/25 10:27:55;;;;;;;9.18;7.22;;;;;;;22.91;51.16;95794.09;10375121;28;20287;-73
2022/09/25 10:33:00;;;;;;;7.75;6.13;;;;;;;22.56;52.97;95821.38;10375825;28;20802;-73
2022/09/25 10:38:01;;;;;;;7.95;5.50;;;;;;;22.53;51.56;95797.84;10357207;28;20336;-73
2022/09/25 10:43:14;;;;;;;6.05;5.45;;;;;;;22.83;49.11;95740.38;10374858;28;20239;-73
2022/09/25 10:54:07;;;;;;;6.10;5.45;;;;;;;24.36;45.91;95726.66;10375171;28;20189;-73
2022/09/25 10:59:16;;;;;;;6.82;4.80;;;;;;;25.25;46.28;95761.06;10374161;28;20197;-74
2022/09/25 11:04:20;;;;;;;6.13;4.55;;;;;;;25.18;46.35;95760.53;10374668;28;20234;-73
2022/09/25 11:09:22;;;;;;;5.47;4.85;;;;;;;24.29;47.64;95760.09;10374134;28;20228;-73
2022/09/25 11:14:31;;;;;;;9.18;4.40;;;;;;;26.05;46.02;95777.34;10356774;28;20197;-73
2022/09/25 11:19:36;;;;;;;4.93;4.43;;;;;;;25.18;45.46;95732.94;10373767;28;20199;-72
2022/09/25 11:24:48;;;;;;;4.57;4.03;;;;;;;26.38;44.38;95753.50;10356353;28;20217;-73
2022/09/25 11:30:11;;;;;;;4.40;4.00;;;;;;;25.59;46.32;95771.13;10373600;28;20263;-73
2022/09/25 11:35:20;;;;;;;5.50;4.45;;;;;;;25.81;44.91;95748.47;10355793;28;20781;-73
2022/09/25 11:46:03;;;;;;;6.20;4.03;;;;;;;24.10;47.15;95747.25;10372896;28;20197;-73
2022/09/25 11:51:11;;;;;;;4.55;4.15;;;;;;;23.61;46.30;95721.72;10355063;28;20642;-73
2022/09/25 11:56:26;;;;;;;4.65;4.25;;;;;;;21.30;52.71;95802.66;10372338;28;20715;-73
2022/09/25 12:01:37;;;;;;;5.57;3.45;;;;;;;20.32;55.47;95833.09;10354427;28;20320;-73
2022/09/25 12:06:57;;;;;;;4.88;3.80;;;;;;;19.27;59.59;95890.84;10372047;28;20562;-73
2022/09/25 12:12:32;;;;;;;6.63;5.13;;;;;;;17.34;66.12;95963.94;10354067;28;20316;-73
2022/09/25 12:18:00;;;;;;;6.22;5.55;;;;;;;17.10;68.52;95980.38;10354085;28;20204;-73
2022/09/25 12:23:13;;;;;;;5.55;4.88;;;;;;;17.09;71.17;95999.13;10371233;28;20186;-73
2022/09/25 12:28:42;;;;;;;12.10;5.05;;;;;;;18.21;69.41;95977.09;10367962;28;20217;-72
2022/09/25 12:33:48;;;;;;;6.68;5.63;;;;;;;17.61;71.83;95996.25;10349922;28;20185;-73
2022/09/25 12:38:54;;;;;;;10.98;6.60;;;;;;;16.72;76.15;96015.63;10370648;28;20209;-72
2022/09/25 12:44:23;;;;;;;8.40;7.25;;;;;;;16.91;74.65;95971.59;10353494;28;20218;-73
2022/09/25 12:49:32;;;;;;;7.85;5.53;;;;;;;19.08;66.92;95877.66;10369926;28;20316;-73
2022/09/25 12:54:46;;;;;;;5.82;4.97;;;;;;;18.75;68.50;95910.03;10353122;28;20194;-73
2022/09/25 12:59:59;;;;;;;6.32;5.15;;;;;;;20.01;63.00;95847.72;10352056;28;20776;-73
2022/09/25 13:05:07;;;;;;;7.50;4.65;;;;;;;20.55;59.87;95815.38;10352647;28;20197;-73
2022/09/25 13:10:29;;;;;;;5.50;4.20;;;;;;;20.15;60.04;95825.09;10352146;28;20266;-73
2022/09/25 13:15:31;;;;;;;4.90;3.85;;;;;;;19.07;62.14;95839.69;10352261;28;20189;-73
2022/09/25 13:20:32;;;;;;;4.28;3.25;;;;;;;16.22;66.60;95863.00;10351920;28;20213;-73
2022/09/25 13:25:54;;;;;;;3.55;3.25;;;;;;;15.76;69.03;95908.91;10369162;28;20201;-73
2022/09/25 13:31:08;;;;;;;4.78;3.15;;;;;;;15.57;69.35;95897.38;10352203;28;20697;-73
2022/09/25 13:36:38;;;;;;;4.78;3.80;;;;;;;15.69;68.87;95895.72;10368618;28;20275;-73
2022/09/25 13:41:56;;;;;;;4.05;3.65;;;;;;;15.26;74.25;95971.97;10351534;28;20196;-73
2022/09/25 13:47:51;;;;;;;4.70;3.83;;;;;;;14.88;77.31;95997.13;10368935;28;20197;-74
2022/09/25 13:53:16;;;;;;;5.20;4.10;;;;;;;14.71;78.10;95982.69;10360761;28;20212;-73
2022/09/25 13:58:24;;;;;;;5.50;4.38;;;;;;;14.75;78.78;95970.75;10351699;28;20193;-74
2022/09/25 14:03:29;;;;;;;5.40;3.97;;;;;;;14.71;79.93;95977.44;10368368;28;20635;-73
2022/09/25 14:08:31;;;;;;;6.28;3.67;;;;;;;14.82;80.98;95982.09;10368276;28;20224;-74
2022/09/25 14:13:32;;;;;;;4.22;3.83;;;;;;;14.23;81.31;95965.94;10350657;28;20201;-74
2022/09/25 14:18:39;;;;;;;4.63;3.63;;;;;;;14.24;83.09;95972.84;10367290;28;20193;-74
2022/09/25 14:24:11;;;;;;;5.05;4.28;;;;;;;14.34;82.99;95961.09;10367972;28;20220;-74
2022/09/25 14:29:22;;;;;;;5.63;4.10;;;;;;;14.42;84.93;95966.19;10346354;28;20229;-73
2022/09/25 14:34:41;;;;;;;5.15;4.38;;;;;;;14.27;84.83;95954.00;10368158;28;20201;-73
2022/09/25 14:39:53;;;;;;;7.47;3.97;;;;;;;13.97;86.70;95960.59;10368055;28;20195;-74
2022/09/25 14:45:19;;;;;;;5.07;4.07;;;;;;;14.12;88.00;95958.63;10360919;28;20580;-74
2022/09/25 14:50:28;;;;;;;4.53;4.13;;;;;;;13.86;90.51;95964.59;10329437;28;20234;-74
2022/09/25 14:55:34;;;;;;;4.97;4.47;;;;;;;13.50;96.77;95961.13;10334331;28;20288;-74
2022/09/25 15:00:43;;;;;;;14.75;12.02;;;;;;;13.41;100.00;95953.59;10333754;28;20716;-73
2022/09/25 15:05:46;;;;;;;40.28;21.60;;;;;;;13.11;100.00;95954.59;10333714;28;20186;-74
2022/09/25 15:10:47;;;;;;;29.25;17.98;;;;;;;13.35;100.00;95955.16;10333482;28;20244;-74
2022/09/25 15:21:20;;;;;;;34.33;21.00;;;;;;;13.03;100.00;95965.22;10333360;28;20670;-73
2022/09/25 15:26:21;;;;;;;9.45;6.47;;;;;;;12.56;100.00;95972.72;10333241;28;20672;-74
2022/09/25 15:31:21;;;;;;;8.80;6.97;;;;;;;12.57;100.00;95982.22;10332605;28;20312;-74
2022/09/25 15:36:23;;;;;;;8.25;7.05;;;;;;;12.40;100.00;95970.31;10331427;28;20624;-74
2022/09/25 15:41:23;;;;;;;58.70;21.73;;;;;;;12.35;100.00;95975.31;10332390;28;20198;-74
2022/09/25 15:46:30;;;;;;;25.85;14.90;;;;;;;12.26;100.00;95975.41;10331779;28;20241;-74
2022/09/25 15:51:32;;;;;;;23.40;14.88;;;;;;;12.22;100.00;95978.59;10332200;28;20217;-73
2022/09/25 15:56:43;;;;;;;33.80;21.05;;;;;;;12.09;100.00;95979.28;10331344;28;20198;-73
2022/09/25 16:07:26;;;;;;;27.83;19.40;;;;;;;12.08;100.00;95996.84;10331086;28;20194;-73
2022/09/25 16:12:27;;;;;;;11.73;9.40;;;;;;;12.10;100.00;95986.97;10331078;28;20248;-73
2022/09/25 16:17:38;;;;;;;18.08;12.18;;;;;;;11.97;100.00;95986.00;10330834;28;20213;-74
2022/09/25 16:22:46;;;;;;;33.70;21.55;;;;;;;11.85;100.00;95983.81;10330888;28;20225;-73
2022/09/25 16:27:47;;;;;;;38.33;25.58;;;;;;;11.75;100.00;95985.91;10313697;28;20201;-74
2022/09/25 16:32:52;;;;;;;34.28;20.80;;;;;;;11.67;100.00;95992.06;10330527;28;20200;-73
2022/09/25 16:37:53;;;;;;;42.55;25.33;;;;;;;11.59;100.00;95989.50;10329521;28;20292;-73
2022/09/25 16:42:56;;;;;;;173.35;68.90;;;;;;;11.43;100.00;95993.13;10330240;28;20539;-73
2022/09/25 16:47:57;;;;;;;45.58;29.27;;;;;;;11.47;100.00;95997.03;10330126;28;20190;-73
2022/09/25 16:52:59;;;;;;;15.90;12.55;;;;;;;11.40;100.00;96007.41;10329967;28;20213;-73
2022/09/25 16:58:02;;;;;;;12.80;10.88;;;;;;;11.36;100.00;96000.91;10329416;28;20205;-73
2022/09/25 17:03:02;;;;;;;11.15;10.05;;;;;;;11.34;100.00;96002.88;10329441;28;20229;-73
2022/09/25 17:08:13;;;;;;;12.13;9.95;;;;;;;11.30;100.00;95993.75;10312119;28;20233;-73
2022/09/25 17:13:15;;;;;;;12.23;9.70;;;;;;;11.27;100.00;95995.88;10331683;28;20185;-73
2022/09/25 17:18:19;;;;;;;11.55;8.80;;;;;;;11.26;100.00;95987.22;10328703;28;20190;-73
2022/09/25 17:23:21;;;;;;;13.18;8.52;;;;;;;11.20;100.00;95985.31;10329658;28;20186;-73
2022/09/25 17:28:22;;;;;;;9.98;8.40;;;;;;;11.16;100.00;95986.66;10328909;28;20221;-73
2022/09/25 17:33:22;;;;;;;13.45;8.27;;;;;;;11.06;100.00;95985.09;10311352;28;20186;-73
2022/09/25 17:38:23;;;;;;;14.63;10.45;;;;;;;10.91;100.00;95992.09;10328663;28;20214;-73
2022/09/25 17:43:23;;;;;;;10.52;8.80;;;;;;;10.93;100.00;96002.41;10328183;28;20249;-73
2022/09/25 17:48:27;;;;;;;12.23;7.90;;;;;;;10.89;100.00;95994.91;10328567;28;20229;-74
2022/09/25 17:53:30;;;;;;;9.75;7.82;;;;;;;10.87;100.00;95986.41;10328183;28;20190;-73
2022/09/25 17:58:31;;;;;;;10.65;9.55;;;;;;;10.66;100.00;95988.88;10327930;28;20190;-73
2022/09/25 18:03:31;;;;;;;10.52;8.32;;;;;;;10.75;100.00;95985.22;10328335;28;20353;-73
2022/09/25 18:08:31;;;;;;;10.23;9.13;;;;;;;10.67;100.00;95987.88;10327689;28;20268;-74
2022/09/25 18:13:32;;;;;;;10.87;9.30;;;;;;;10.65;100.00;95993.28;10328103;28;20293;-73
2022/09/25 18:23:51;;;;;;;9.93;8.40;;;;;;;10.41;100.00;95999.50;10329549;28;20206;-74
2022/09/25 18:28:51;;;;;;;9.57;8.00;;;;;;;10.39;100.00;95993.63;10335290;28;20689;-73
2022/09/25 18:33:53;;;;;;;8.23;7.37;;;;;;;10.48;100.00;95992.56;10335275;28;20812;-73
2022/09/25 18:38:54;;;;;;;11.53;7.13;;;;;;;10.49;100.00;95988.16;10335100;28;20210;-74
2022/09/25 18:43:54;;;;;;;9.97;7.43;;;;;;;10.42;100.00;95989.84;10334906;28;20548;-74
2022/09/25 18:48:56;;;;;;;8.77;7.00;;;;;;;10.38;100.00;95996.41;10334632;28;20632;-74
2022/09/25 18:53:56;;;;;;;9.33;7.37;;;;;;;10.30;100.00;96000.66;10334756;28;20190;-73
2022/09/25 18:58:57;;;;;;;10.73;7.93;;;;;;;10.17;100.00;95997.81;10333990;28;20280;-72
2022/09/25 19:03:57;;;;;;;9.20;8.30;;;;;;;10.15;100.00;95998.00;10333903;28;20243;-73
2022/09/25 19:08:58;;;;;;;10.07;8.27;;;;;;;10.08;100.00;95993.59;10333488;28;20308;-74
2022/09/25 19:13:58;;;;;;;9.33;8.40;;;;;;;10.11;100.00;96001.91;10334011;28;20253;-73
2022/09/25 19:18:59;;;;;;;11.87;8.37;;;;;;;10.04;100.00;95979.22;10333281;28;20198;-74
2022/09/25 19:24:00;;;;;;;11.47;9.17;;;;;;;9.95;100.00;95991.53;10333334;28;20189;-73
2022/09/25 19:29:00;;;;;;;11.87;9.57;;;;;;;9.85;100.00;95991.75;10313981;28;20222;-74
2022/09/25 19:34:01;;;;;;;9.73;8.73;;;;;;;9.85;100.00;95996.13;10331627;28;20194;-73
2022/09/25 19:39:02;;;;;;;14.53;8.53;;;;;;;9.83;100.00;96004.16;10330677;28;20237;-73
2022/09/25 19:44:06;;;;;;;11.23;8.43;;;;;;;9.81;100.00;96008.75;10332517;28;20496;-73
2022/09/25 19:49:06;;;;;;;10.07;8.47;;;;;;;9.81;100.00;95995.66;10332216;28;20222;-73
2022/09/25 19:54:10;;;;;;;8.63;7.70;;;;;;;9.84;100.00;95997.13;10332219;28;20253;-73
2022/09/25 19:59:12;;;;;;;11.50;9.17;;;;;;;9.83;100.00;95988.47;10330434;28;20223;-73
2022/09/25 20:04:13;;;;;;;10.67;8.50;;;;;;;9.83;100.00;95980.59;10331933;28;20238;-72
2022/09/25 20:09:13;;;;;;;9.07;8.07;;;;;;;9.81;100.00;95986.00;10331439;28;20299;-73
2022/09/25 20:14:13;;;;;;;10.30;8.57;;;;;;;9.84;100.00;95990.09;10331586;28;20225;-72
2022/09/25 20:19:14;;;;;;;11.77;8.63;;;;;;;9.79;100.00;95988.00;10330202;28;20239;-72
2022/09/25 20:24:14;;;;;;;13.43;8.57;;;;;;;9.80;100.00;95983.56;10330971;28;20293;-73
2022/09/25 20:29:15;;;;;;;11.47;8.83;;;;;;;9.77;100.00;95978.66;10330840;28;20272;-72
2022/09/25 20:34:18;;;;;;;12.33;8.60;;;;;;;9.76;100.00;95969.22;10330364;28;20220;-73
2022/09/25 20:39:19;;;;;;;14.40;9.23;;;;;;;9.74;100.00;95965.94;10330672;28;20182;-73
2022/09/25 20:44:19;;;;;;;9.67;8.67;;;;;;;9.84;100.00;95974.41;10330232;28;20190;-72
2022/09/25 20:49:20;;;;;;;10.13;7.77;;;;;;;9.87;100.00;95973.25;10329564;28;20218;-72
2022/09/25 20:54:23;;;;;;;10.30;8.87;;;;;;;9.84;100.00;95979.63;10330265;28;20273;-73
2022/09/25 20:59:24;;;;;;;9.13;8.23;;;;;;;9.94;100.00;95979.44;10329272;28;20272;-73
2022/09/25 21:04:24;;;;;;;9.70;8.77;;;;;;;9.91;100.00;95975.34;10329411;28;20288;-73
2022/09/25 21:09:25;;;;;;;11.00;8.47;;;;;;;9.88;100.00;95970.47;10329091;28;20229;-73
2022/09/25 21:14:27;;;;;;;9.10;8.20;;;;;;;9.89;100.00;95964.25;10329094;28;20193;-72
2022/09/25 21:19:27;;;;;;;9.70;8.60;;;;;;;9.84;100.00;95966.56;10329549;28;20189;-72
2022/09/25 21:24:27;;;;;;;10.47;9.43;;;;;;;9.87;100.00;95963.59;10329034;28;20190;-72
2022/09/25 21:29:30;;;;;;;11.00;9.80;;;;;;;9.76;100.00;95967.41;10328724;28;20847;-73
2022/09/25 21:34:30;;;;;;;10.50;8.70;;;;;;;9.95;100.00;95960.97;10328666;28;20190;-72
2022/09/25 21:39:31;;;;;;;12.53;8.37;;;;;;;10.03;100.00;95954.88;10328745;28;20194;-72
2022/09/25 21:44:31;;;;;;;9.27;8.27;;;;;;;10.04;100.00;95959.09;10328676;28;20185;-72
2022/09/25 21:49:32;;;;;;;9.63;8.63;;;;;;;10.03;100.00;95960.09;10328554;28;20280;-72
2022/09/25 21:54:32;;;;;;;9.83;8.83;;;;;;;10.02;100.00;95958.47;10328649;28;20198;-73
2022/09/25 21:59:33;;;;;;;11.23;9.40;;;;;;;9.91;100.00;95958.84;10330719;28;20742;-73
2022/09/25 22:04:33;;;;;;;11.47;9.20;;;;;;;10.00;100.00;95948.16;10336786;28;20204;-73
2022/09/25 22:09:33;;;;;;;10.10;9.10;;;;;;;10.07;100.00;95950.91;10336288;28;20222;-73
2022/09/25 22:14:34;;;;;;;10.20;8.60;;;;;;;10.24;100.00;95937.72;10335922;28;20285;-73
2022/09/25 22:19:34;;;;;;;10.50;9.37;;;;;;;10.16;100.00;95942.00;10336144;28;20181;-73
2022/09/25 22:24:35;;;;;;;12.93;10.33;;;;;;;10.40;100.00;95942.06;10335697;28;20726;-73
2022/09/25 22:29:36;;;;;;;11.57;9.03;;;;;;;10.64;100.00;95917.50;10335462;28;20732;-73
2022/09/25 22:34:36;;;;;;;12.87;11.57;;;;;;;10.78;100.00;95911.50;10335162;28;20300;-73
2022/09/25 22:39:36;;;;;;;16.50;13.90;;;;;;;10.70;100.00;95901.91;10335157;28;20682;-73
2022/09/25 22:44:37;;;;;;;12.27;10.97;;;;;;;10.78;100.00;95905.41;10335455;28;20826;-73
2022/09/25 22:49:37;;;;;;;11.13;9.57;;;;;;;10.59;100.00;95904.94;10334497;28;20590;-72
2022/09/25 22:54:37;;;;;;;11.63;10.17;;;;;;;10.62;100.00;95899.34;10334955;28;20961;-73
2022/09/25 22:59:38;;;;;;;14.17;11.30;;;;;;;10.58;100.00;95903.31;10333727;28;20559;-73
2022/09/25 23:04:38;;;;;;;11.90;9.70;;;;;;;10.60;100.00;95896.09;10334539;28;20596;-73
2022/09/25 23:09:38;;;;;;;11.93;10.67;;;;;;;10.59;100.00;95896.25;10333839;28;20647;-73
2022/09/25 23:14:39;;;;;;;15.77;12.27;;;;;;;10.51;100.00;95897.16;10333730;28;20616;-73
2022/09/25 23:19:39;;;;;;;15.83;12.27;;;;;;;10.76;100.00;95900.34;10334002;28;20567;-73
2022/09/25 23:24:40;;;;;;;15.77;13.27;;;;;;;10.59;100.00;95891.03;10333240;28;20189;-72
2022/09/25 23:29:40;;;;;;;17.83;13.00;;;;;;;10.74;100.00;95886.63;10345432;28;20260;-73
2022/09/25 23:34:41;;;;;;;15.32;13.73;;;;;;;10.76;100.00;95879.41;10332924;28;20217;-73
2022/09/25 23:39:41;;;;;;;18.58;14.68;;;;;;;10.81;100.00;95877.09;10333175;28;20186;-72
2022/09/25 23:44:41;;;;;;;15.50;13.80;;;;;;;10.84;100.00;95881.13;10332904;28;20317;-73
2022/09/25 23:49:42;;;;;;;15.63;14.00;;;;;;;11.02;100.00;95878.16;10332479;28;20226;-73
2022/09/25 23:54:42;;;;;;;19.58;15.10;;;;;;;11.07;100.00;95870.56;10332391;28;20206;-73
2022/09/25 23:59:43;;;;;;;19.45;16.45;;;;;;;10.93;100.00;95851.22;10331763;28;20189;-73
